Time;durP1;ratioP1;P1;durP2;ratioP2;P2;SDS_P1;SDS_P2;PMS_P1;PMS_P2;Temp;Humidity;BMP_temperature;BMP_pressure;BME280_temperature;BME280_humidity;BME280_pressure;Samples;Min_cycle;Max_cycle;Signal;HPM_P1;HPM_P2
2022/06/09 00:00:10;;;;;;;0.20;0.20;;;;;;;11.47;93.52;99856.59;5105018;28;20028;-77
2022/06/09 00:02:37;;;;;;;0.40;0.40;;;;;;;11.44;93.79;99854.06;5087485;28;20022;-76
2022/06/09 00:05:06;;;;;;;0.60;0.60;;;;;;;11.30;93.95;99828.34;5105739;28;20019;-77
2022/06/09 00:07:32;;;;;;;0.93;0.93;;;;;;;11.43;94.00;99850.59;5105671;28;20494;-76
2022/06/09 00:10:03;;;;;;;0.30;0.30;;;;;;;11.47;94.14;99847.03;5105640;28;20036;-76
2022/06/09 00:12:30;;;;;;;0.50;0.50;;;;;;;11.45;94.23;99840.16;5105824;28;20042;-76
2022/06/09 00:14:57;;;;;;;0.20;0.20;;;;;;;11.50;94.35;99843.53;5105360;28;20027;-77
2022/06/09 00:17:23;;;;;;;0.50;0.50;;;;;;;11.59;94.54;99856.31;5086879;28;20020;-76
2022/06/09 00:19:49;;;;;;;0.30;0.30;;;;;;;11.61;94.55;99846.72;5105263;28;20483;-76
2022/06/09 00:22:14;;;;;;;0.30;0.30;;;;;;;11.65;94.70;99850.13;5087058;28;20032;-76
2022/06/09 00:24:40;;;;;;;0.30;0.30;;;;;;;11.69;94.66;99845.72;5105528;28;20070;-76
2022/06/09 00:27:05;;;;;;;0.47;0.47;;;;;;;11.77;94.54;99851.63;5105336;28;20031;-76
2022/06/09 00:29:31;;;;;;;0.60;0.60;;;;;;;11.78;94.61;99854.19;5087069;28;20024;-76
2022/06/09 00:31:56;;;;;;;0.20;0.20;;;;;;;11.81;94.55;99850.63;5105301;28;20069;-76
2022/06/09 00:34:22;;;;;;;0.40;0.40;;;;;;;11.77;94.46;99852.44;5105166;28;20445;-76
2022/06/09 00:36:47;;;;;;;0.68;0.68;;;;;;;11.80;94.61;99853.28;5087022;28;20020;-76
2022/06/09 00:39:13;;;;;;;0.40;0.40;;;;;;;11.85;94.86;99857.47;5105243;28;20024;-77
2022/06/09 00:41:40;;;;;;;0.38;0.38;;;;;;;11.89;94.92;99859.13;5105006;28;20036;-76
2022/06/09 00:44:12;;;;;;;2.05;0.88;;;;;;;11.93;94.79;99857.31;5104934;28;20069;-76
2022/06/09 00:46:38;;;;;;;0.68;0.68;;;;;;;11.90;94.82;99847.81;5105016;28;20020;-76
2022/06/09 00:49:14;;;;;;;1.05;1.05;;;;;;;11.97;94.88;99852.88;5104881;28;20024;-77
2022/06/09 00:51:45;;;;;;;0.40;0.40;;;;;;;12.00;94.71;99855.41;5104643;28;20036;-77
2022/06/09 00:54:19;;;;;;;1.75;1.20;;;;;;;12.02;94.88;99854.50;5104748;28;20055;-76
2022/06/09 00:56:56;;;;;;;0.30;0.30;;;;;;;12.05;95.01;99863.97;5086050;28;20097;-76
2022/06/09 00:59:26;;;;;;;0.77;0.77;;;;;;;12.07;95.14;99864.81;5104700;28;20027;-76
2022/06/09 01:01:52;;;;;;;0.30;0.30;;;;;;;11.99;95.00;99851.97;5104498;28;20024;-76
2022/06/09 01:04:21;;;;;;;0.32;0.32;;;;;;;12.06;95.08;99846.63;5086298;28;20367;-76
2022/06/09 01:06:57;;;;;;;0.30;0.30;;;;;;;12.07;95.30;99851.78;5104511;28;20468;-76
2022/06/09 01:09:25;;;;;;;0.60;0.60;;;;;;;12.11;95.40;99853.44;5086512;28;20090;-76
2022/06/09 01:11:55;;;;;;;0.30;0.30;;;;;;;12.18;95.26;99854.16;5085460;28;20027;-76
2022/06/09 01:14:23;;;;;;;3.60;2.85;;;;;;;12.21;95.25;99858.44;5104294;28;20492;-76
2022/06/09 01:17:08;;;;;;;4.60;4.22;;;;;;;12.18;95.17;99845.50;5104268;28;20020;-76
2022/06/09 01:19:55;;;;;;;0.60;0.57;;;;;;;12.25;95.24;99860.91;5086007;28;20024;-77
2022/06/09 01:22:30;;;;;;;0.30;0.30;;;;;;;12.26;95.29;99851.38;5104116;28;20028;-76
2022/06/09 01:25:30;;;;;;;0.50;0.50;;;;;;;12.28;95.30;99854.81;5104173;28;20035;-77
2022/06/09 01:28:45;;;;;;;1.10;0.47;;;;;;;12.25;95.07;99849.69;5104093;28;20016;-76
2022/06/09 01:31:47;;;;;;;0.30;0.30;;;;;;;12.26;95.00;99853.97;5103917;28;20075;-77
2022/06/09 01:34:30;;;;;;;0.98;0.98;;;;;;;12.23;94.81;99856.66;5075565;28;20062;-76
2022/06/09 01:37:06;;;;;;;0.30;0.30;;;;;;;12.21;95.00;99848.03;5103831;28;20023;-77
2022/06/09 01:39:56;;;;;;;0.30;0.30;;;;;;;12.22;95.01;99850.59;5104036;28;20024;-77
2022/06/09 01:42:24;;;;;;;0.30;0.30;;;;;;;12.25;94.82;99860.91;5103808;28;20039;-76
2022/06/09 01:44:54;;;;;;;0.22;0.22;;;;;;;12.24;95.12;99863.56;5103758;28;20479;-76
2022/06/09 01:47:22;;;;;;;2.58;2.47;;;;;;;12.22;95.20;99860.16;5103904;28;20031;-76
2022/06/09 01:49:52;;;;;;;0.85;0.85;;;;;;;12.18;95.18;99854.16;5103635;28;20024;-75
2022/06/09 01:52:19;;;;;;;2.95;2.42;;;;;;;12.16;95.17;99849.91;5103581;28;20016;-76
2022/06/09 01:54:46;;;;;;;1.15;1.10;;;;;;;12.21;95.31;99855.84;5103817;28;20471;-76
2022/06/09 01:57:21;;;;;;;2.75;2.50;;;;;;;12.26;95.74;99859.19;5103305;28;20058;-76
2022/06/09 02:00:03;;;;;;;0.38;0.38;;;;;;;12.30;95.64;99855.59;5085192;28;20074;-76
2022/06/09 02:02:37;;;;;;;12.13;7.22;;;;;;;12.37;95.42;99859.78;5103937;28;20044;-75
2022/06/09 02:05:12;;;;;;;0.20;0.20;;;;;;;12.43;95.68;99858.75;5085387;28;20114;-75
2022/06/09 02:07:40;;;;;;;0.30;0.30;;;;;;;12.49;95.67;99852.56;5085322;28;20091;-75
2022/06/09 02:10:17;;;;;;;0.30;0.30;;;;;;;12.56;95.54;99859.31;5103876;28;20036;-75
2022/06/09 02:12:45;;;;;;;0.30;0.30;;;;;;;12.58;95.53;99856.66;5103462;28;20565;-75
2022/06/09 02:15:16;;;;;;;0.52;0.52;;;;;;;12.62;95.58;99859.16;5103540;28;20066;-76
2022/06/09 02:17:48;;;;;;;0.73;0.73;;;;;;;12.70;95.66;99863.31;5103444;28;20024;-75
2022/06/09 02:20:16;;;;;;;0.40;0.40;;;;;;;12.71;95.60;99857.22;5103265;28;20024;-78
2022/06/09 02:22:42;;;;;;;0.32;0.32;;;;;;;12.64;94.92;99859.13;5105090;28;20263;-79
2022/06/09 02:25:08;;;;;;;61.15;26.63;;;;;;;12.53;94.17;99864.59;5107482;28;20043;-78
2022/06/09 02:27:33;;;;;;;65.32;27.90;;;;;;;12.34;93.72;99853.78;5107573;28;20028;-78
2022/06/09 02:29:59;;;;;;;70.50;28.45;;;;;;;12.25;93.76;99866.13;5089188;28;20369;-78
2022/06/09 02:32:24;;;;;;;64.65;27.30;;;;;;;12.07;94.14;99859.59;5089156;28;20020;-78
2022/06/09 02:34:49;;;;;;;60.22;26.92;;;;;;;12.02;94.46;99864.91;5107500;28;20081;-78
2022/06/09 02:37:15;;;;;;;70.45;27.67;;;;;;;11.95;94.48;99863.31;5107144;28;20088;-79
2022/06/09 02:39:41;;;;;;;56.28;25.10;;;;;;;11.94;94.85;99869.44;5107303;28;20020;-78
2022/06/09 02:42:07;;;;;;;60.70;28.17;;;;;;;11.88;95.13;99862.63;5088733;28;20532;-77
2022/06/09 02:44:33;;;;;;;61.13;26.15;;;;;;;11.85;95.32;99875.69;5089247;28;20020;-79
2022/06/09 02:46:59;;;;;;;62.63;28.20;;;;;;;11.88;95.33;99886.03;5107299;28;20050;-78
2022/06/09 02:49:24;;;;;;;63.38;28.83;;;;;;;11.91;95.19;99874.69;5107162;28;20090;-78
2022/06/09 02:51:49;;;;;;;57.60;24.63;;;;;;;11.85;95.32;99875.69;5107256;28;20043;-78
2022/06/09 02:54:15;;;;;;;55.30;26.30;;;;;;;11.92;95.29;99883.38;5088663;28;20020;-78
2022/06/09 02:56:42;;;;;;;47.42;24.77;;;;;;;11.88;95.29;99880.84;5088663;28;20559;-78
2022/06/09 02:59:08;;;;;;;51.88;25.77;;;;;;;11.90;95.03;99889.44;5107039;28;20054;-79
2022/06/09 03:01:33;;;;;;;48.42;22.48;;;;;;;11.82;95.15;99873.16;5107005;28;20021;-79
2022/06/09 03:03:59;;;;;;;48.08;23.73;;;;;;;11.81;95.45;99871.44;5106777;28;20065;-79
2022/06/09 03:06:25;;;;;;;56.13;27.15;;;;;;;11.81;95.33;99878.38;5088517;28;20020;-80
2022/06/09 03:08:50;;;;;;;54.55;25.27;;;;;;;11.82;95.35;99873.16;5106608;28;20027;-78
2022/06/09 03:11:16;;;;;;;51.28;25.48;;;;;;;11.85;95.59;99882.66;5106730;28;20035;-79
2022/06/09 03:13:42;;;;;;;49.72;26.23;;;;;;;11.87;95.55;99881.72;5106431;28;20054;-78
2022/06/09 03:16:10;;;;;;;59.25;25.85;;;;;;;11.85;95.56;99882.66;5088439;28;20016;-79
2022/06/09 03:18:35;;;;;;;54.58;25.30;;;;;;;11.93;95.61;99890.28;5088308;28;20092;-78
2022/06/09 03:21:01;;;;;;;38.80;22.20;;;;;;;11.93;95.95;99896.34;5088276;28;20066;-79
2022/06/09 03:23:27;;;;;;;39.40;21.48;;;;;;;11.94;96.09;99898.03;5088166;28;20027;-79
2022/06/09 03:25:52;;;;;;;46.35;22.27;;;;;;;12.01;95.74;99901.38;5106667;28;20024;-79
2022/06/09 03:28:18;;;;;;;40.95;23.08;;;;;;;12.07;95.93;99902.97;5106516;28;20176;-78
2022/06/09 03:30:44;;;;;;;41.80;22.77;;;;;;;12.06;95.91;99906.47;5088238;28;20112;-80
2022/06/09 03:33:10;;;;;;;38.75;22.98;;;;;;;12.06;95.53;99912.50;5087569;28;20418;-79
2022/06/09 03:35:35;;;;;;;46.25;22.25;;;;;;;12.06;95.41;99909.91;5105802;28;20020;-79
2022/06/09 03:38:01;;;;;;;37.53;20.42;;;;;;;12.02;95.51;99916.09;5088089;28;20027;-80
2022/06/09 03:40:28;;;;;;;34.08;19.85;;;;;;;12.01;95.47;99907.41;5087876;28;20028;-79
2022/06/09 03:42:55;;;;;;;38.28;21.20;;;;;;;12.05;95.45;99913.41;5106101;28;20096;-78
2022/06/09 03:45:21;;;;;;;41.05;22.65;;;;;;;12.06;95.37;99917.72;5106264;28;20019;-79
2022/06/09 03:47:47;;;;;;;44.38;22.17;;;;;;;12.06;95.59;99917.72;5106224;28;20024;-79
2022/06/09 03:50:23;;;;;;;35.97;21.15;;;;;;;12.12;95.23;99916.78;5106112;28;20031;-79
2022/06/09 03:52:48;;;;;;;35.03;21.45;;;;;;;12.08;94.88;99917.72;5105651;28;20024;-79
2022/06/09 03:55:14;;;;;;;42.10;21.63;;;;;;;12.10;94.84;99915.94;5106291;28;20027;-79
2022/06/09 03:57:40;;;;;;;31.60;19.85;;;;;;;12.14;95.26;99921.03;5105739;28;20105;-79
2022/06/09 04:00:08;;;;;;;27.02;19.02;;;;;;;12.25;95.20;99923.38;5106095;28;20028;-80
2022/06/09 04:02:33;;;;;;;22.63;15.35;;;;;;;12.37;95.59;99927.47;5105848;28;20020;-78
2022/06/09 04:04:59;;;;;;;26.35;16.50;;;;;;;12.52;95.75;99926.22;5105987;28;20051;-78
2022/06/09 04:07:25;;;;;;;25.58;16.38;;;;;;;12.58;95.42;99922.63;5105682;28;20146;-78
2022/06/09 04:09:50;;;;;;;25.67;17.02;;;;;;;12.62;94.90;99934.66;5105795;28;20111;-78
2022/06/09 04:12:16;;;;;;;26.45;15.77;;;;;;;12.63;94.56;99931.19;5105529;28;20092;-77
2022/06/09 04:14:42;;;;;;;24.88;16.00;;;;;;;12.68;94.68;99938.03;5105603;28;20036;-78
2022/06/09 04:17:09;;;;;;;27.63;15.98;;;;;;;12.69;94.10;99939.72;5087282;28;20024;-70
2022/06/09 04:19:35;;;;;;;27.35;17.50;;;;;;;12.59;93.72;99934.75;5105370;28;20020;-76
2022/06/09 04:22:00;;;;;;;27.33;16.08;;;;;;;12.62;93.55;99937.28;5105466;28;20024;-77
2022/06/09 04:24:26;;;;;;;27.75;15.77;;;;;;;12.61;92.51;99926.91;5105201;28;20028;-76
2022/06/09 04:26:51;;;;;;;22.42;14.73;;;;;;;12.66;93.44;99921.56;5086932;28;20028;-76
2022/06/09 04:29:16;;;;;;;26.83;14.43;;;;;;;12.93;94.01;99924.38;5105282;28;20027;-75
2022/06/09 04:31:42;;;;;;;20.15;12.85;;;;;;;13.35;95.14;99925.88;5105124;28;20072;-74
2022/06/09 04:34:08;;;;;;;22.98;13.93;;;;;;;13.72;95.24;99940.50;5104944;28;20108;-74
2022/06/09 04:36:34;;;;;;;19.48;11.80;;;;;;;14.22;96.43;99927.72;5105013;28;20024;-69
2022/06/09 04:39:01;;;;;;;19.05;12.05;;;;;;;14.61;95.98;99932.56;5104966;28;20023;-72
2022/06/09 04:41:27;;;;;;;21.02;11.98;;;;;;;14.98;96.12;99938.31;5104853;28;20020;-72
2022/06/09 04:43:52;;;;;;;19.73;10.95;;;;;;;15.32;94.51;99935.47;5104656;28;20038;-71
2022/06/09 04:46:21;;;;;;;16.92;10.63;;;;;;;15.58;93.75;99931.88;5104697;28;20020;-71
2022/06/09 04:48:47;;;;;;;16.45;10.05;;;;;;;15.94;92.65;99948.03;5104714;28;20118;-71
2022/06/09 04:51:16;;;;;;;11.45;9.23;;;;;;;16.20;91.04;99949.66;5104919;28;20016;-71
2022/06/09 04:53:42;;;;;;;10.77;8.18;;;;;;;16.54;90.05;99955.31;5104629;28;20041;-71
2022/06/09 04:56:09;;;;;;;13.27;8.32;;;;;;;16.89;89.62;99946.03;5104561;28;20024;-71
2022/06/09 04:58:38;;;;;;;11.98;7.32;;;;;;;17.26;87.03;99947.13;5086091;28;20051;-70
2022/06/09 05:01:05;;;;;;;8.50;7.25;;;;;;;17.41;83.87;99952.63;5104311;28;20028;-71
2022/06/09 05:03:32;;;;;;;8.20;6.80;;;;;;;17.39;81.94;99949.19;5104170;28;20020;-73
2022/06/09 05:05:58;;;;;;;7.75;6.68;;;;;;;17.64;83.33;99950.72;5104163;28;20048;-73
2022/06/09 05:08:23;;;;;;;9.80;5.70;;;;;;;18.15;83.54;99945.75;5103992;28;20103;-71
2022/06/09 05:10:49;;;;;;;9.18;5.97;;;;;;;18.79;82.31;99947.94;5104194;28;20073;-73
2022/06/09 05:13:15;;;;;;;9.32;6.25;;;;;;;19.08;77.70;99948.25;5104215;28;20016;-72
2022/06/09 05:15:52;;;;;;;7.90;5.93;;;;;;;19.51;79.61;99952.19;5104165;28;20112;-72
2022/06/09 05:18:24;;;;;;;7.95;5.43;;;;;;;20.17;78.96;99953.97;5104114;28;20031;-72
2022/06/09 05:20:50;;;;;;;;;;;;;;;20.73;74.99;99964.00;5104694;28;20016;-73
2022/06/09 05:23:18;;;;;;;7.93;5.68;;;;;;;20.68;70.42;99966.06;5103851;28;19947;-73
2022/06/09 05:25:44;;;;;;;13.35;4.93;;;;;;;20.77;72.02;99954.94;5104157;28;20020;-73
2022/06/09 05:28:10;;;;;;;6.28;4.80;;;;;;;21.38;71.78;99961.09;5104214;28;20043;-74
2022/06/09 05:30:36;;;;;;;9.95;5.15;;;;;;;21.72;68.21;99966.09;5104309;28;20070;-74
2022/06/09 05:33:02;;;;;;;6.20;4.75;;;;;;;21.41;66.26;99963.56;5104139;28;20027;-73
2022/06/09 05:35:28;;;;;;;9.68;5.45;;;;;;;20.88;65.69;99956.94;5104217;28;20095;-73
2022/06/09 05:46:07;;;;;;;10.18;6.55;;;;;;;18.91;65.59;99978.00;5104219;28;20039;-74
2022/06/09 05:48:33;;;;;;;5.93;5.03;;;;;;;18.35;63.82;99975.50;5103935;28;20032;-74
2022/06/09 05:50:59;;;;;;;8.30;6.00;;;;;;;17.75;64.75;99987.00;5103884;28;20019;-73
2022/06/09 05:53:25;;;;;;;9.23;5.90;;;;;;;17.43;65.57;99990.09;5103712;28;20210;-73
2022/06/09 05:55:50;;;;;;;8.30;5.57;;;;;;;17.10;66.81;99986.28;5104046;28;20426;-73
2022/06/09 05:58:16;;;;;;;7.00;6.30;;;;;;;16.89;66.92;99990.59;5103210;28;20044;-73
2022/06/09 06:00:41;;;;;;;11.10;5.70;;;;;;;16.75;67.69;99991.19;5103988;28;20105;-73
2022/06/09 06:03:08;;;;;;;8.18;5.43;;;;;;;16.60;68.07;99994.38;5103571;28;20039;-74
2022/06/09 06:08:18;;;;;;;8.55;4.50;;;;;;;16.23;68.32;100001.03;5103657;28;20027;-74
2022/06/09 06:10:43;;;;;;;6.18;4.80;;;;;;;16.06;68.37;100001.69;5103656;28;20016;-74
2022/06/09 06:13:09;;;;;;;7.25;5.03;;;;;;;15.91;68.83;100005.75;5103498;28;20061;-74
2022/06/09 06:15:34;;;;;;;7.60;4.53;;;;;;;15.84;69.52;100000.72;5103809;28;20049;-74
2022/06/09 06:18:02;;;;;;;7.97;5.15;;;;;;;15.85;69.91;100004.19;5103535;28;20024;-74
2022/06/09 06:20:30;;;;;;;7.13;4.07;;;;;;;15.86;70.70;100004.13;5103598;28;20404;-74
2022/06/09 06:22:56;;;;;;;5.80;4.57;;;;;;;15.90;70.91;100009.25;5103364;28;20084;-74
2022/06/09 06:25:23;;;;;;;8.65;4.80;;;;;;;15.94;71.15;100003.84;5103581;28;20020;-74
2022/06/09 06:27:49;;;;;;;7.15;4.38;;;;;;;16.10;71.19;100012.00;5103655;28;20032;-74
2022/06/09 06:30:14;;;;;;;8.20;4.82;;;;;;;16.26;71.26;99997.47;5103609;28;20073;-74
2022/06/09 06:32:40;;;;;;;9.20;6.60;;;;;;;16.41;71.03;100001.25;5103375;28;20480;-74
2022/06/09 06:35:06;;;;;;;8.80;6.07;;;;;;;16.70;71.28;100012.34;5103662;28;20020;-74
2022/06/09 06:37:32;;;;;;;6.65;4.22;;;;;;;16.84;70.34;99996.03;5103594;28;20095;-74
2022/06/09 06:39:57;;;;;;;9.38;4.50;;;;;;;16.92;68.69;100000.97;5103539;28;20125;-74
2022/06/09 06:42:23;;;;;;;6.85;3.90;;;;;;;16.95;69.34;99998.22;5103329;28;20024;-73
2022/06/09 06:44:49;;;;;;;5.32;4.00;;;;;;;17.15;69.46;100009.69;5103469;28;20494;-73
2022/06/09 06:47:15;;;;;;;5.70;3.85;;;;;;;17.32;67.54;100014.19;5103500;28;20024;-74
2022/06/09 06:49:40;;;;;;;6.40;3.90;;;;;;;17.28;66.12;100013.50;5103332;28;20023;-74
2022/06/09 06:52:06;;;;;;;7.07;3.53;;;;;;;17.20;66.07;100008.56;5103218;28;20046;-74
2022/06/09 06:54:31;;;;;;;5.90;3.35;;;;;;;17.18;65.82;100014.78;5103359;28;20679;-74
2022/06/09 06:56:57;;;;;;;7.03;3.50;;;;;;;17.31;65.20;100005.50;5103197;28;20072;-75
2022/06/09 06:59:22;;;;;;;4.82;3.55;;;;;;;17.38;64.87;100015.72;5103218;28;20107;-73
2022/06/09 07:01:47;;;;;;;4.50;3.30;;;;;;;17.50;63.92;100025.69;5085058;28;20377;-74
2022/06/09 07:04:13;;;;;;;8.70;3.80;;;;;;;17.56;64.40;100025.41;5103223;28;20087;-74
2022/06/09 07:06:38;;;;;;;4.05;3.40;;;;;;;17.78;64.82;100018.34;5103377;28;20027;-73
2022/06/09 07:09:04;;;;;;;6.03;2.78;;;;;;;17.98;64.07;100019.22;5105544;28;20475;-73
2022/06/09 07:11:29;;;;;;;4.72;4.03;;;;;;;18.01;63.25;100033.06;5107063;28;20031;-74
2022/06/09 07:13:55;;;;;;;4.45;3.38;;;;;;;18.06;63.45;100031.09;5106855;28;20055;-74
2022/06/09 07:16:20;;;;;;;5.07;3.45;;;;;;;18.16;63.10;100035.94;5107062;28;20042;-74
2022/06/09 07:18:46;;;;;;;7.30;5.45;;;;;;;18.11;62.10;100035.25;5106928;28;20088;-74
2022/06/09 07:21:13;;;;;;;3.33;2.72;;;;;;;18.00;62.51;100039.25;5106914;28;20221;-74
2022/06/09 07:23:38;;;;;;;4.72;3.17;;;;;;;17.95;62.47;100030.72;5106860;28;20020;-74
2022/06/09 07:26:04;;;;;;;6.60;3.65;;;;;;;17.99;62.99;100034.91;5106820;28;20032;-74
2022/06/09 07:28:30;;;;;;;5.00;3.30;;;;;;;18.05;63.02;100037.25;5106889;28;20023;-75
2022/06/09 07:30:59;;;;;;;4.03;3.03;;;;;;;18.11;62.23;100038.75;5106856;28;20020;-74
2022/06/09 07:33:30;;;;;;;5.20;3.15;;;;;;;18.15;62.28;100044.72;5106725;28;20058;-74
2022/06/09 07:35:57;;;;;;;7.72;3.50;;;;;;;18.23;62.39;100047.03;5088532;28;20096;-75
2022/06/09 07:38:24;;;;;;;5.18;3.03;;;;;;;18.38;62.33;100046.31;5106383;28;20153;-74
2022/06/09 07:40:50;;;;;;;6.68;3.10;;;;;;;18.57;62.49;100054.16;5106253;28;20081;-74
2022/06/09 07:43:16;;;;;;;5.25;2.92;;;;;;;18.88;61.50;100051.81;5106449;28;20422;-74
2022/06/09 07:45:43;;;;;;;4.05;3.00;;;;;;;18.93;60.87;100048.97;5106433;28;20028;-74
2022/06/09 07:48:09;;;;;;;4.53;3.33;;;;;;;18.99;60.24;100053.94;5106348;28;20103;-73
2022/06/09 07:50:35;;;;;;;7.13;3.90;;;;;;;18.89;59.56;100058.78;5106578;28;20031;-73
2022/06/09 07:53:01;;;;;;;5.45;4.22;;;;;;;18.74;59.87;100070.06;5106225;28;20161;-74
2022/06/09 07:55:27;;;;;;;6.97;4.18;;;;;;;18.73;59.96;100063.94;5106413;28;20075;-74
2022/06/09 07:57:54;;;;;;;7.75;4.60;;;;;;;18.78;60.39;100061.94;5105812;28;20044;-74
2022/06/09 08:00:21;;;;;;;9.20;4.20;;;;;;;18.90;60.85;100060.47;5106170;28;20106;-74
2022/06/09 08:02:48;;;;;;;7.65;4.63;;;;;;;19.05;59.97;100072.03;5106020;28;20061;-75
2022/06/09 08:05:16;;;;;;;9.57;4.38;;;;;;;19.18;59.45;100068.81;5106211;28;20028;-74
2022/06/09 08:07:42;;;;;;;10.90;5.20;;;;;;;19.35;58.87;100060.06;5106034;28;20030;-73
2022/06/09 08:10:10;;;;;;;8.35;5.03;;;;;;;19.41;57.13;100069.44;5105912;28;20020;-74
2022/06/09 08:12:35;;;;;;;7.50;5.10;;;;;;;19.34;56.92;100068.03;5106026;28;20102;-73
2022/06/09 08:15:03;;;;;;;7.18;4.55;;;;;;;19.28;56.33;100069.22;5106061;28;20027;-73
2022/06/09 08:17:28;;;;;;;6.82;4.15;;;;;;;19.39;56.79;100076.56;5105739;28;20023;-74
2022/06/09 08:19:53;;;;;;;8.98;4.32;;;;;;;19.73;57.72;100077.44;5105122;28;20024;-73
2022/06/09 08:22:19;;;;;;;7.70;4.45;;;;;;;20.44;56.66;100079.88;5105652;28;20031;-72
2022/06/09 08:24:46;;;;;;;7.53;4.13;;;;;;;21.09;56.02;100085.09;5105706;28;20104;-73
2022/06/09 08:27:12;;;;;;;10.32;5.15;;;;;;;21.64;53.04;100073.09;5105505;28;20016;-73
2022/06/09 08:29:38;;;;;;;6.57;4.07;;;;;;;21.89;50.85;100079.53;5087305;28;20088;-73
2022/06/09 08:32:04;;;;;;;13.27;5.22;;;;;;;22.13;51.18;100080.75;5105440;28;20045;-73
2022/06/09 08:34:30;;;;;;;6.10;4.20;;;;;;;22.34;50.01;100082.97;5105555;28;20107;-73
2022/06/09 08:36:55;;;;;;;10.05;4.03;;;;;;;22.41;49.73;100079.84;5105416;28;20365;-73
2022/06/09 08:39:21;;;;;;;7.78;4.75;;;;;;;22.25;48.74;100077.31;5105239;28;20024;-74
2022/06/09 08:41:52;;;;;;;5.00;4.20;;;;;;;22.08;50.34;100082.84;5105164;28;20020;-73
2022/06/09 08:44:17;;;;;;;4.57;3.42;;;;;;;22.03;48.94;100083.97;5105175;28;20028;-73
2022/06/09 08:46:46;;;;;;;8.82;4.90;;;;;;;21.81;49.26;100081.78;5105267;28;20027;-74
2022/06/09 08:49:56;;;;;;;6.00;3.67;;;;;;;21.74;50.31;100083.09;5105186;28;20509;-73
2022/06/09 08:52:33;;;;;;;5.00;3.80;;;;;;;22.05;49.05;100086.50;5093889;28;20480;-72
2022/06/09 08:55:11;;;;;;;7.15;3.67;;;;;;;21.88;48.59;100092.84;5086860;28;20031;-73
2022/06/09 08:57:37;;;;;;;4.95;4.15;;;;;;;21.59;48.95;100091.00;5104820;28;20616;-73
2022/06/09 09:00:03;;;;;;;5.90;4.38;;;;;;;21.41;49.94;100085.88;5104898;28;20024;-73
2022/06/09 09:02:31;;;;;;;9.57;4.47;;;;;;;21.33;50.19;100093.38;5104495;28;20024;-73
2022/06/09 09:05:34;;;;;;;6.00;4.95;;;;;;;21.07;49.91;100082.56;5104641;28;20026;-73
2022/06/09 09:08:03;;;;;;;6.78;4.53;;;;;;;20.75;51.04;100099.25;5093264;28;20066;-74
2022/06/09 09:10:50;;;;;;;6.45;4.57;;;;;;;20.60;51.71;100092.22;5104339;28;20016;-73
2022/06/09 09:13:28;;;;;;;6.13;5.00;;;;;;;20.43;51.99;100094.84;5104223;28;20031;-73
2022/06/09 09:15:58;;;;;;;8.45;5.20;;;;;;;20.38;52.54;100096.91;5104264;28;20434;-74
2022/06/09 09:18:28;;;;;;;6.82;4.20;;;;;;;20.36;52.98;100098.78;5085706;28;20592;-74
2022/06/09 09:21:06;;;;;;;8.50;4.82;;;;;;;20.21;52.46;100104.88;5104320;28;20523;-74
2022/06/09 09:23:46;;;;;;;6.47;4.57;;;;;;;19.92;53.18;100102.84;5103905;28;20453;-75
2022/06/09 09:26:28;;;;;;;10.00;4.78;;;;;;;19.82;54.05;100099.81;5104298;28;20102;-74
2022/06/09 09:29:08;;;;;;;8.05;5.00;;;;;;;19.86;54.26;100095.22;5085608;28;20020;-75
2022/06/09 09:31:56;;;;;;;7.80;4.47;;;;;;;19.96;54.49;100096.47;5103104;28;20095;-74
2022/06/09 09:34:37;;;;;;;6.70;4.45;;;;;;;20.09;53.96;100095.84;5103928;28;20028;-75
2022/06/09 09:37:19;;;;;;;7.00;4.35;;;;;;;20.19;54.28;100086.50;5104069;28;20028;-72
2022/06/09 09:39:59;;;;;;;8.50;5.15;;;;;;;20.53;53.56;100097.84;5103681;28;20042;-72
2022/06/09 09:42:32;;;;;;;8.27;4.40;;;;;;;20.67;53.48;100090.94;5103735;28;20034;-74
2022/06/09 09:45:09;;;;;;;6.57;4.78;;;;;;;20.76;53.44;100090.44;5103793;28;20034;-73
2022/06/09 09:47:54;;;;;;;7.10;5.22;;;;;;;20.77;53.08;100097.41;5085736;28;20092;-73
2022/06/09 09:50:32;;;;;;;5.95;4.95;;;;;;;20.87;53.14;100099.50;5103755;28;20028;-73
2022/06/09 09:53:19;;;;;;;5.13;4.63;;;;;;;20.96;53.08;100106.09;5103436;28;20028;-73
2022/06/09 09:55:50;;;;;;;5.93;5.00;;;;;;;20.92;52.05;100108.06;5103695;28;20046;-73
2022/06/09 09:58:39;;;;;;;5.90;4.93;;;;;;;20.74;51.79;100110.75;5103468;28;20044;-74
2022/06/09 10:01:04;;;;;;;6.57;4.28;;;;;;;20.42;52.79;100106.34;5103488;28;20032;-73
2022/06/09 10:09:18;;;;;;;6.82;4.63;;;;;;;20.54;53.35;100107.44;5103362;28;20092;-74
2022/06/09 10:11:53;;;;;;;6.88;3.60;;;;;;;20.66;53.17;100108.56;5103569;28;20149;-73
2022/06/09 10:14:27;;;;;;;6.20;4.45;;;;;;;20.81;52.58;100119.19;5103263;28;20054;-74
2022/06/09 10:16:54;;;;;;;6.13;4.38;;;;;;;20.84;52.29;100112.88;5103549;28;20034;-73
2022/06/09 10:19:23;;;;;;;7.00;4.47;;;;;;;20.86;52.00;100109.22;5103668;28;20020;-74
2022/06/09 10:21:55;;;;;;;7.55;4.20;;;;;;;21.05;51.91;100124.88;5104036;28;20024;-73
2022/06/09 10:24:27;;;;;;;7.30;4.07;;;;;;;21.07;51.20;100129.22;5103475;28;20028;-74
2022/06/09 10:26:56;;;;;;;6.57;3.97;;;;;;;21.00;51.83;100129.59;5103206;28;20024;-74
2022/06/09 10:29:27;;;;;;;8.50;3.92;;;;;;;21.27;51.72;100134.22;5103342;28;20102;-73
2022/06/09 10:31:58;;;;;;;7.68;3.55;;;;;;;21.32;51.26;100126.03;5103454;28;20020;-74
2022/06/09 10:34:50;;;;;;;6.13;3.53;;;;;;;21.36;51.43;100130.16;5103168;28;20020;-74
2022/06/09 10:37:28;;;;;;;6.35;3.78;;;;;;;21.62;50.50;100133.06;5084751;28;20031;-73
2022/06/09 10:40:06;;;;;;;5.13;4.10;;;;;;;21.81;49.81;100131.13;5102993;28;20048;-74
2022/06/09 10:42:35;;;;;;;6.85;3.75;;;;;;;21.98;49.94;100127.50;5103146;28;20054;-74
2022/06/09 10:45:17;;;;;;;6.60;3.30;;;;;;;22.53;49.69;100131.13;5106934;28;20028;-74
2022/06/09 10:56:41;;;;;;;5.35;3.78;;;;;;;24.14;45.11;100130.34;5107141;28;20035;-72
2022/06/09 10:59:16;;;;;;;6.00;3.67;;;;;;;23.80;45.99;100128.25;5107151;28;20092;-73
2022/06/09 11:01:42;;;;;;;4.78;3.70;;;;;;;23.49;46.27;100133.84;5107187;28;20048;-72
2022/06/09 11:04:14;;;;;;;5.38;4.05;;;;;;;23.10;46.28;100139.00;5106543;28;20024;-72
2022/06/09 11:07:11;;;;;;;6.93;3.47;;;;;;;22.89;47.57;100136.81;5106673;28;20050;-73
2022/06/09 11:09:46;;;;;;;6.00;3.85;;;;;;;22.94;47.77;100139.16;5106553;28;20042;-72
2022/06/09 11:12:22;;;;;;;9.63;4.32;;;;;;;22.88;47.55;100134.25;5106547;28;20024;-74
2022/06/09 11:15:10;;;;;;;7.40;4.22;;;;;;;22.71;47.68;100138.88;5106760;28;20536;-74
2022/06/09 11:18:07;;;;;;;6.88;4.22;;;;;;;22.41;48.10;100132.72;5106836;28;20106;-73
2022/06/09 11:20:47;;;;;;;7.20;4.22;;;;;;;22.30;48.64;100124.63;5106753;28;20115;-73
2022/06/09 11:23:15;;;;;;;7.68;4.35;;;;;;;22.31;48.66;100128.97;5106303;28;20091;-72
2022/06/09 11:25:58;;;;;;;7.38;4.32;;;;;;;22.29;48.36;100128.22;5106480;28;20021;-72
2022/06/09 11:28:34;;;;;;;5.65;3.85;;;;;;;22.35;48.20;100127.00;5106376;28;20020;-72
2022/06/09 11:31:38;;;;;;;16.30;4.75;;;;;;;22.21;48.25;100123.41;5106317;28;20022;-72
2022/06/09 11:34:21;;;;;;;7.75;3.85;;;;;;;22.17;48.76;100119.28;5106495;28;20293;-73
2022/06/09 11:37:18;;;;;;;5.90;3.60;;;;;;;22.23;48.79;100124.19;5106330;28;20107;-73
2022/06/09 11:40:18;;;;;;;7.05;3.88;;;;;;;22.13;48.64;100123.91;5106156;28;20026;-73
2022/06/09 11:43:04;;;;;;;5.28;3.42;;;;;;;21.95;48.23;100114.47;5106226;28;20043;-71
2022/06/09 11:45:44;;;;;;;4.00;3.53;;;;;;;21.79;48.72;100133.88;5106238;28;20079;-72
2022/06/09 11:48:22;;;;;;;5.78;3.58;;;;;;;21.68;49.69;100131.84;5106356;28;20091;-73
2022/06/09 11:50:48;;;;;;;5.82;3.80;;;;;;;21.68;49.12;100131.84;5106050;28;20086;-73
2022/06/09 11:53:18;;;;;;;5.05;3.47;;;;;;;21.62;48.69;100135.72;5105781;28;20023;-72
2022/06/09 11:56:00;;;;;;;5.25;3.85;;;;;;;21.60;49.22;100134.13;5104883;28;20058;-73
2022/06/09 11:58:34;;;;;;;3.40;3.00;;;;;;;21.64;48.86;100138.25;5105731;28;20063;-73
2022/06/09 12:01:08;;;;;;;9.40;3.58;;;;;;;21.60;48.98;100134.13;5105974;28;20388;-73
2022/06/09 12:03:46;;;;;;;6.40;3.88;;;;;;;21.49;49.52;100135.59;5105608;28;20024;-72
2022/06/09 12:06:25;;;;;;;4.57;3.40;;;;;;;21.44;50.17;100142.09;5105887;28;20369;-74